Time;durP1;ratioP1;P1;durP2;ratioP2;P2;SDS_P1;SDS_P2;PMS_P1;PMS_P2;Temp;Humidity;BMP_temperature;BMP_pressure;BME280_temperature;BME280_humidity;BME280_pressure;Samples;Min_cycle;Max_cycle;Signal;HPM_P1;HPM_P2
2022/06/06 00:01:46;;;;;;;5.45;2.80;;;;;;;22.46;41.00;99816.31;4438528;32;32413;-85
2022/06/06 00:04:15;;;;;;;4.12;2.67;;;;;;;22.35;41.34;99818.13;4423770;32;32165;-86
2022/06/06 00:06:44;;;;;;;5.45;3.00;;;;;;;22.40;41.09;99818.09;4440510;32;32662;-85
2022/06/06 00:09:13;;;;;;;4.78;2.80;;;;;;;22.29;41.43;99824.31;4439581;32;33134;-84
2022/06/06 00:11:41;;;;;;;6.82;2.80;;;;;;;22.49;41.16;99832.16;4419844;32;32122;-88
2022/06/06 00:14:11;;;;;;;4.30;2.80;;;;;;;22.56;40.25;99823.34;4438229;32;33202;-85
2022/06/06 00:16:39;;;;;;;5.07;3.15;;;;;;;22.11;41.48;99829.56;4453533;32;33339;-87
2022/06/06 00:19:10;;;;;;;5.25;2.78;;;;;;;22.31;40.94;99817.25;4454143;32;32925;-86
2022/06/06 00:21:38;;;;;;;7.72;2.75;;;;;;;21.71;42.06;99809.41;4455158;32;32532;-87
2022/06/06 00:24:07;;;;;;;5.20;3.10;;;;;;;21.88;42.47;99816.41;4453118;32;34498;-85
2022/06/06 00:26:35;;;;;;;5.82;2.85;;;;;;;22.30;40.87;99814.62;4436709;32;32392;-86
2022/06/06 00:29:04;;;;;;;8.38;3.22;;;;;;;22.04;41.65;99818.16;4455601;32;34735;-84
2022/06/06 00:37:08;;;;;;;4.80;3.00;;;;;;;21.90;42.07;99835.75;4456986;32;33564;-86
2022/06/06 00:39:36;;;;;;;4.30;3.08;;;;;;;21.79;41.94;99838.41;4442261;32;32225;-87
2022/06/06 00:42:15;;;;;;;3.97;2.90;;;;;;;21.89;42.69;99844.56;4454356;32;33679;-84
2022/06/06 00:44:43;;;;;;;4.30;2.90;;;;;;;21.96;41.79;99855.09;4429018;32;33874;-85
2022/06/06 00:47:26;;;;;;;5.12;3.30;;;;;;;21.75;42.82;99863.00;4439550;32;32519;-87
2022/06/06 00:49:56;;;;;;;4.30;3.22;;;;;;;22.03;41.86;99863.87;4446470;32;33371;-86
2022/06/06 00:52:30;;;;;;;4.57;3.30;;;;;;;21.84;42.31;99862.13;4438361;32;32397;-86
2022/06/06 00:55:01;;;;;;;4.68;2.90;;;;;;;21.90;42.09;99860.34;4449689;32;33382;-84
2022/06/06 00:57:31;;;;;;;5.07;3.20;;;;;;;21.77;42.71;99875.31;4452046;32;33549;-83
2022/06/06 01:00:08;;;;;;;5.43;3.03;;;;;;;21.56;43.52;99885.84;4453955;32;33598;-84
2022/06/06 01:02:36;;;;;;;4.82;3.30;;;;;;;21.24;44.29;99902.41;4468390;32;33910;-88
2022/06/06 01:05:05;;;;;;;4.97;3.53;;;;;;;20.90;44.95;99915.47;4449880;32;33805;-85
2022/06/06 01:07:33;;;;;;;4.25;3.12;;;;;;;21.61;43.66;99907.78;4433940;32;33523;-87
2022/06/06 01:10:01;;;;;;;4.65;3.20;;;;;;;21.99;43.14;99909.59;4466648;32;34042;-83
2022/06/06 01:12:31;;;;;;;4.78;2.90;;;;;;;22.12;42.77;99908.72;4438596;32;33161;-87
2022/06/06 01:15:02;;;;;;;4.30;3.05;;;;;;;22.07;42.67;99902.56;4439562;32;31913;-86
2022/06/06 01:17:33;;;;;;;8.18;3.33;;;;;;;21.89;43.29;99910.47;4453871;32;31980;-86
2022/06/06 01:20:17;;;;;;;4.70;3.25;;;;;;;22.02;43.17;99909.59;4448676;32;33443;-85
2022/06/06 01:23:13;;;;;;;5.05;3.53;;;;;;;22.05;43.49;99916.63;4465160;32;34848;-87
2022/06/06 01:25:59;;;;;;;;;;;;;;;22.10;43.52;99914.88;4465498;32;34264;-85
2022/06/06 01:28:32;;;;;;;5.53;3.50;;;;;;;22.33;43.23;99912.25;4440115;32;32791;-82
2022/06/06 01:31:05;;;;;;;7.93;3.47;;;;;;;22.22;43.92;99911.34;4453715;32;32893;-88
2022/06/06 01:33:48;;;;;;;4.57;3.22;;;;;;;21.87;45.13;99920.16;4454212;32;35075;-86
2022/06/06 01:36:16;;;;;;;5.60;3.75;;;;;;;21.58;45.94;99913.09;4452887;32;32077;-85
2022/06/06 01:38:44;;;;;;;4.95;3.60;;;;;;;21.38;46.11;99920.88;4468276;32;33568;-85
2022/06/06 01:41:18;;;;;;;5.72;3.47;;;;;;;21.20;45.88;99932.25;4441222;32;32279;-87
2022/06/06 01:43:55;;;;;;;4.95;3.70;;;;;;;21.17;46.83;99930.50;4453522;32;33575;-83
2022/06/06 01:46:27;;;;;;;4.55;3.30;;;;;;;21.10;46.09;99941.00;4432529;32;33122;-83
2022/06/06 01:48:56;;;;;;;4.72;3.58;;;;;;;21.06;46.49;99955.91;4446379;32;34039;-83
2022/06/06 11:07:27;;;;;;;4.70;3.50;;;;;;;28.66;29.94;99952.19;4466064;26;34989;-58
2022/06/06 11:09:58;;;;;;;231.40;200.27;;;;;;;28.98;29.63;99951.28;4431111;32;34251;-59
2022/06/06 11:12:42;;;;;;;9.98;8.23;;;;;;;28.09;31.37;99952.78;4446017;32;34168;-60
2022/06/06 11:15:10;;;;;;;6.72;4.15;;;;;;;28.98;31.61;99945.09;4451721;32;33401;-60
2022/06/06 11:17:56;;;;;;;5.12;3.87;;;;;;;29.64;29.52;99939.59;4432221;32;32278;-60
2022/06/06 11:20:33;;;;;;;5.18;3.17;;;;;;;28.86;29.09;99943.66;4447827;32;33478;-59
2022/06/06 11:23:34;;;;;;;4.70;3.28;;;;;;;29.91;29.22;99941.41;4451115;32;34674;-59
2022/06/06 11:26:20;;;;;;;4.78;3.25;;;;;;;30.26;27.46;99947.34;4442421;32;33587;-60
2022/06/06 11:28:57;;;;;;;5.87;3.20;;;;;;;30.04;28.98;99946.31;4434888;32;34044;-59
2022/06/06 11:31:49;;;;;;;4.15;3.25;;;;;;;28.72;29.61;99941.34;4451455;32;34093;-59
2022/06/06 11:34:41;;;;;;;6.15;4.00;;;;;;;29.50;28.75;99927.56;4448766;32;33921;-59
2022/06/06 11:37:27;;;;;;;6.62;3.72;;;;;;;29.52;29.14;99928.38;4446368;32;33494;-59
2022/06/06 11:40:32;;;;;;;5.93;3.72;;;;;;;29.40;30.22;99934.97;4446740;32;34832;-59
2022/06/06 11:43:45;;;;;;;4.72;3.62;;;;;;;30.12;29.51;99925.59;4442863;32;34185;-59
2022/06/06 11:46:36;;;;;;;40.63;34.53;;;;;;;30.63;26.79;99922.03;4435061;32;34518;-59
2022/06/06 11:49:39;;;;;;;6.05;3.45;;;;;;;29.24;29.43;99924.81;4443526;32;33531;-59
2022/06/06 11:52:37;;;;;;;567.03;468.27;;;;;;;29.23;28.14;99920.41;4428780;32;32622;-59
2022/06/06 11:55:05;;;;;;;213.73;130.12;;;;;;;28.39;29.67;99922.66;4425343;32;33387;-59
2022/06/06 11:57:56;;;;;;;5.82;4.03;;;;;;;29.13;29.85;99912.66;4430973;32;33672;-58
2022/06/06 12:00:37;;;;;;;182.37;129.50;;;;;;;30.04;28.18;99916.94;4433221;32;34499;-59
2022/06/06 12:03:29;;;;;;;318.37;241.90;;;;;;;28.69;29.55;99906.78;4447695;32;33905;-58
2022/06/06 12:06:13;;;;;;;289.58;221.55;;;;;;;27.75;30.76;99916.28;4432633;32;34214;-60
2022/06/06 12:08:55;;;;;;;7.80;4.90;;;;;;;28.64;30.47;99900.72;4452637;32;34917;-59
2022/06/06 12:12:23;;;;;;;83.05;63.22;;;;;;;29.64;28.88;99896.88;4437792;32;33441;-61
2022/06/06 12:15:26;;;;;;;26.73;21.20;;;;;;;28.81;29.43;99898.44;4371779;32;32963;-61
2022/06/06 12:18:20;;;;;;;13.50;9.23;;;;;;;30.20;28.25;99902.16;4373709;32;31786;-59
2022/06/06 12:21:16;;;;;;;6.05;4.37;;;;;;;30.51;27.73;99890.41;4455701;32;34244;-60
2022/06/06 12:24:01;;;;;;;5.12;3.90;;;;;;;30.66;27.40;99887.19;4454093;32;34698;-59
2022/06/06 12:26:50;;;;;;;4.75;3.40;;;;;;;31.17;25.65;99888.84;4445542;32;33463;-60
2022/06/06 12:29:42;;;;;;;6.03;2.85;;;;;;;30.52;28.39;99884.13;4452980;32;33649;-59
2022/06/06 12:32:38;;;;;;;4.40;3.40;;;;;;;30.26;28.28;99887.72;4449967;32;33681;-59
2022/06/06 12:35:27;;;;;;;6.15;3.15;;;;;;;30.53;27.92;99888.56;4417643;32;33143;-61
2022/06/06 12:38:24;;;;;;;5.62;3.83;;;;;;;29.66;29.09;99879.03;4429901;32;33473;-60
2022/06/06 12:41:14;;;;;;;4.53;3.45;;;;;;;30.49;27.75;99878.91;4432457;32;34446;-58
2022/06/06 12:44:10;;;;;;;4.18;3.20;;;;;;;29.08;30.16;99874.56;4434444;32;33175;-58
2022/06/06 12:46:49;;;;;;;4.55;2.95;;;;;;;29.91;28.18;99882.66;4426316;32;34608;-60
2022/06/06 12:49:19;;;;;;;4.03;3.12;;;;;;;30.10;26.48;99876.69;4447889;32;34035;-58
2022/06/06 12:52:07;;;;;;;4.05;3.33;;;;;;;29.77;27.70;99880.44;4447051;32;31614;-58
2022/06/06 12:57:48;;;;;;;4.82;2.85;;;;;;;29.70;29.40;99869.97;4439701;32;34615;-59
2022/06/06 13:01:37;;;;;;;4.35;3.00;;;;;;;29.23;29.26;99872.37;4431872;32;34493;-58
2022/06/06 13:03:35;;;;;;;4.80;3.27;;;;;;;29.57;28.87;99865.06;4447630;32;33382;-59
2022/06/06 13:06:17;;;;;;;5.15;3.35;;;;;;;29.22;30.61;99866.16;4447261;32;34101;-58
2022/06/06 13:08:51;;;;;;;4.03;3.10;;;;;;;28.31;29.90;99871.37;4448095;32;33894;-59
2022/06/06 13:11:37;;;;;;;5.65;2.90;;;;;;;28.56;29.46;99860.09;4448470;32;34241;-58
2022/06/06 13:14:11;;;;;;;4.28;3.10;;;;;;;29.56;28.51;99860.62;4443605;32;34210;-59
2022/06/06 13:16:57;;;;;;;5.28;3.50;;;;;;;29.56;28.06;99855.28;4442978;32;33810;-58
2022/06/06 13:19:44;;;;;;;4.12;2.80;;;;;;;29.84;28.65;99849.06;4433251;32;32559;-58
2022/06/06 13:22:29;;;;;;;4.07;2.92;;;;;;;29.68;27.71;99858.47;4439893;32;33425;-59
2022/06/06 13:25:51;;;;;;;4.97;3.22;;;;;;;29.80;27.16;99852.75;4453334;32;33855;-59
2022/06/06 13:28:31;;;;;;;5.80;3.12;;;;;;;28.79;29.52;99856.75;4401149;32;33568;-59
2022/06/06 13:31:11;;;;;;;4.07;3.17;;;;;;;28.95;28.77;99851.84;4450108;32;33816;-59
2022/06/06 13:33:51;;;;;;;4.72;3.00;;;;;;;29.34;27.79;99855.13;4428095;32;34276;-59
2022/06/06 13:36:24;;;;;;;4.28;3.28;;;;;;;29.51;27.16;99851.88;4446368;32;34442;-59
2022/06/06 13:39:13;;;;;;;7.45;3.53;;;;;;;29.13;28.15;99850.44;4444255;32;33734;-59
2022/06/06 13:41:43;;;;;;;5.12;3.25;;;;;;;29.15;28.63;99849.47;4442092;32;34549;-59
2022/06/06 13:44:49;;;;;;;5.20;3.12;;;;;;;28.40;28.36;99841.81;4403343;32;32206;-59
2022/06/06 13:47:26;;;;;;;3.83;3.15;;;;;;;28.55;27.36;99848.56;4446818;32;32484;-59
2022/06/06 13:50:37;;;;;;;5.87;3.60;;;;;;;28.75;27.92;99844.44;4418395;32;32691;-59
2022/06/06 13:53:26;;;;;;;4.18;3.25;;;;;;;28.59;30.04;99849.34;4460885;32;33900;-59
2022/06/06 13:56:21;;;;;;;8.57;3.90;;;;;;;28.92;28.85;99847.47;4451621;32;33689;-59
2022/06/06 13:59:01;;;;;;;6.10;3.62;;;;;;;28.21;31.63;99848.56;4448042;32;33167;-59
2022/06/06 14:01:46;;;;;;;9.68;4.93;;;;;;;28.51;33.07;99841.56;4440871;32;34838;-59
2022/06/06 14:04:30;;;;;;;5.10;4.10;;;;;;;28.14;34.99;99842.53;4436806;32;33778;-59
2022/06/06 14:07:03;;;;;;;5.18;4.30;;;;;;;28.28;35.27;99834.19;4438483;32;32343;-59
2022/06/06 14:09:40;;;;;;;5.28;3.90;;;;;;;28.63;33.72;99841.22;4447452;32;33844;-59
2022/06/06 14:12:32;;;;;;;5.30;3.33;;;;;;;28.95;31.41;99841.16;4447802;32;33673;-61
2022/06/06 14:15:05;;;;;;;4.70;3.58;;;;;;;29.27;30.71;99834.00;4437111;32;34544;-60
2022/06/06 14:17:36;;;;;;;5.12;3.80;;;;;;;29.25;30.38;99838.53;4417337;32;33232;-60
2022/06/06 14:20:19;;;;;;;7.07;3.78;;;;;;;28.42;32.75;99836.47;4455461;32;33218;-59
2022/06/06 14:22:48;;;;;;;5.37;3.50;;;;;;;29.02;31.98;99840.06;4422800;32;31776;-60
2022/06/06 14:25:16;;;;;;;6.57;4.10;;;;;;;29.50;31.79;99838.63;4449010;32;34561;-59
2022/06/06 14:27:43;;;;;;;5.40;3.92;;;;;;;28.68;33.84;99838.41;4430517;32;33462;-60
2022/06/06 14:30:29;;;;;;;7.43;3.53;;;;;;;28.96;32.39;99833.13;4433036;32;31967;-60
2022/06/06 14:32:59;;;;;;;5.57;3.80;;;;;;;29.49;32.50;99828.84;4454679;32;34019;-60
2022/06/06 14:35:36;;;;;;;5.18;4.25;;;;;;;29.73;32.60;99836.09;4448790;32;33198;-59
2022/06/06 14:38:30;;;;;;;5.68;4.32;;;;;;;29.65;32.26;99826.53;4433022;32;33239;-60
2022/06/06 14:41:03;;;;;;;5.62;4.22;;;;;;;29.56;32.22;99833.06;4455868;32;33458;-59
2022/06/06 14:43:49;;;;;;;7.40;4.80;;;;;;;29.35;32.83;99829.31;4434032;32;33695;-60
2022/06/06 14:46:17;;;;;;;5.25;4.37;;;;;;;28.96;33.38;99832.25;4452868;32;33818;-59
2022/06/06 14:48:49;;;;;;;7.30;4.10;;;;;;;28.93;33.92;99832.34;4436567;32;34437;-59
2022/06/06 14:51:17;;;;;;;5.18;4.18;;;;;;;28.41;35.07;99830.25;4432800;32;34098;-60
2022/06/06 14:53:50;;;;;;;5.57;4.37;;;;;;;28.41;34.60;99830.25;4451092;32;34058;-60
2022/06/06 14:56:17;;;;;;;7.12;4.10;;;;;;;28.73;34.10;99831.16;4427575;32;34651;-59
2022/06/06 14:58:55;;;;;;;5.62;4.10;;;;;;;28.57;34.30;99827.19;4441898;32;32675;-60
2022/06/06 15:01:24;;;;;;;4.93;3.85;;;;;;;28.43;34.52;99828.44;4449585;32;32980;-60
2022/06/06 15:03:56;;;;;;;6.72;4.40;;;;;;;28.56;34.20;99820.09;4429914;32;33888;-60
2022/06/06 15:06:32;;;;;;;7.97;4.32;;;;;;;28.36;34.72;99821.53;4427202;32;32836;-60
2022/06/06 15:09:03;;;;;;;6.20;3.90;;;;;;;29.01;34.12;99824.97;4420385;32;34579;-60
2022/06/06 15:11:32;;;;;;;5.35;3.80;;;;;;;29.27;33.97;99826.00;4414984;32;32617;-59
2022/06/06 15:14:11;;;;;;;5.75;3.83;;;;;;;29.29;33.66;99818.84;4421633;32;33481;-60
2022/06/06 15:16:39;;;;;;;7.22;4.10;;;;;;;29.08;33.38;99815.88;4416889;32;34654;-59
2022/06/06 15:19:38;;;;;;;4.87;3.97;;;;;;;29.37;31.26;99811.44;4421540;32;36257;-60
2022/06/06 15:22:10;;;;;;;7.07;3.95;;;;;;;28.83;33.21;99805.09;4417466;32;33627;-59
2022/06/06 15:24:42;;;;;;;6.18;3.72;;;;;;;28.80;32.84;99808.72;4420312;32;33933;-60
2022/06/06 15:27:32;;;;;;;5.32;3.92;;;;;;;28.87;33.00;99808.53;4420482;32;34006;-60
2022/06/06 15:30:10;;;;;;;4.82;3.90;;;;;;;29.31;32.57;99806.31;4403398;32;33806;-59
2022/06/06 15:32:46;;;;;;;4.87;3.83;;;;;;;29.50;30.91;99812.78;4419805;32;33121;-60
2022/06/06 15:35:35;;;;;;;5.70;3.90;;;;;;;29.51;31.96;99803.84;4419674;32;34615;-60
2022/06/06 15:38:22;;;;;;;4.80;3.60;;;;;;;29.87;30.18;99805.38;4433947;32;32834;-60
2022/06/06 15:41:24;;;;;;;4.93;3.90;;;;;;;29.21;30.98;99808.41;4428862;32;33964;-59
2022/06/06 15:44:10;;;;;;;6.75;4.25;;;;;;;29.55;29.91;99797.50;4432739;32;33798;-59
2022/06/06 15:46:55;;;;;;;7.25;3.80;;;;;;;29.43;31.20;99811.25;4420392;32;34551;-60
2022/06/06 15:49:33;;;;;;;;;;;;;;;29.54;30.68;99809.09;4416327;32;33336;-58
2022/06/06 15:52:40;;;;;;;5.12;3.83;;;;;;;29.27;31.97;99810.00;4423120;32;33199;-59
2022/06/06 15:55:16;;;;;;;6.62;4.45;;;;;;;29.20;32.29;99812.84;4438020;32;33214;-58
2022/06/06 15:57:52;;;;;;;4.45;3.72;;;;;;;28.88;33.36;99803.16;4440942;32;34360;-59
2022/06/06 16:00:21;;;;;;;6.43;4.60;;;;;;;28.73;33.93;99804.50;4421168;32;35016;-58
2022/06/06 16:03:08;;;;;;;6.95;3.78;;;;;;;29.31;33.15;99796.50;4431263;32;34341;-58
2022/06/06 16:05:39;;;;;;;6.40;4.25;;;;;;;29.21;32.80;99801.28;4434134;32;33926;-60
2022/06/06 16:08:29;;;;;;;4.70;3.95;;;;;;;28.85;34.00;99805.06;4438641;32;34526;-60
2022/06/06 16:11:16;;;;;;;5.32;4.20;;;;;;;29.11;33.76;99804.22;4433076;32;81643;-60
2022/06/06 16:13:55;;;;;;;6.60;4.30;;;;;;;28.87;34.33;99806.75;4438226;32;33600;-59
2022/06/06 16:16:23;;;;;;;4.90;3.60;;;;;;;28.43;34.26;99804.44;4427078;32;33626;-59
2022/06/06 16:19:17;;;;;;;6.18;4.30;;;;;;;29.11;32.53;99813.13;4445968;32;32537;-59
2022/06/06 16:21:49;;;;;;;5.82;3.90;;;;;;;29.21;33.73;99806.59;4423389;32;34806;-60
2022/06/06 16:24:21;;;;;;;4.55;3.50;;;;;;;29.13;32.68;99808.66;4415226;32;34569;-59
2022/06/06 16:26:54;;;;;;;5.97;4.47;;;;;;;28.50;33.75;99812.25;4436664;32;33426;-60
2022/06/06 16:29:33;;;;;;;5.37;4.03;;;;;;;28.55;33.79;99810.34;4423801;32;34119;-60
2022/06/06 16:32:24;;;;;;;4.95;3.92;;;;;;;29.18;32.71;99809.34;4407526;32;34688;-60
2022/06/06 16:34:59;;;;;;;5.60;3.95;;;;;;;28.98;32.38;99815.28;4438000;32;33190;-60
2022/06/06 16:38:27;;;;;;;6.80;4.05;;;;;;;28.80;33.03;99808.72;4446903;32;32242;-60
2022/06/06 16:47:54;;;;;;;4.80;2.60;;;;;;;28.14;38.05;99820.34;4384352;32;32663;-59
2022/06/06 16:50:42;;;;;;;5.30;2.47;;;;;;;26.94;43.74;99817.91;4426527;32;33178;-59
2022/06/06 16:53:43;;;;;;;3.25;2.25;;;;;;;26.76;44.42;99820.06;4448236;32;34659;-59
2022/06/06 16:56:40;;;;;;;3.87;2.10;;;;;;;27.05;44.45;99823.88;4421039;32;32800;-59
2022/06/06 16:59:26;;;;;;;3.20;2.22;;;;;;;27.09;44.38;99830.88;4424285;32;33804;-59
2022/06/06 17:02:32;;;;;;;4.28;2.22;;;;;;;27.03;44.63;99833.66;4438809;32;31994;-59
2022/06/06 17:08:25;;;;;;;4.78;2.58;;;;;;;26.50;45.56;99823.22;4433989;32;34618;-58
2022/06/06 17:10:59;;;;;;;5.53;2.33;;;;;;;26.54;45.36;99829.34;4447093;32;34900;-59
2022/06/06 17:13:39;;;;;;;4.22;2.28;;;;;;;26.54;44.89;99824.94;4434550;32;33280;-59
2022/06/06 17:16:26;;;;;;;16.50;6.37;;;;;;;26.48;45.35;99817.94;4416993;32;33778;-58
2022/06/06 17:19:00;;;;;;;15.00;6.87;;;;;;;26.54;45.43;99816.06;4434868;32;33976;-59
2022/06/06 17:21:31;;;;;;;10.95;3.97;;;;;;;26.74;44.86;99815.69;4434699;32;32543;-57
2022/06/06 17:24:00;;;;;;;9.35;4.82;;;;;;;26.75;44.96;99823.59;4449317;32;32747;-59
2022/06/06 17:26:42;;;;;;;4.50;2.62;;;;;;;26.80;44.46;99821.75;4451813;32;34401;-58
2022/06/06 17:29:17;;;;;;;7.20;3.53;;;;;;;26.81;44.65;99818.19;4434692;32;34646;-58
2022/06/06 17:32:11;;;;;;;5.65;3.05;;;;;;;26.63;45.08;99814.12;4448628;32;33869;-58
2022/06/06 17:34:40;;;;;;;3.62;2.35;;;;;;;26.82;44.64;99822.56;4430524;32;33468;-59
2022/06/06 17:37:21;;;;;;;7.07;3.35;;;;;;;26.89;44.00;99815.38;4416018;32;33923;-57
2022/06/06 17:39:54;;;;;;;5.57;2.37;;;;;;;27.05;43.96;99824.72;4446569;32;34347;-58
2022/06/06 17:42:27;;;;;;;5.32;3.05;;;;;;;26.92;44.18;99827.69;4430846;32;34471;-58
2022/06/06 17:45:13;;;;;;;7.07;2.35;;;;;;;26.60;45.17;99823.97;4436047;32;33542;-58
2022/06/06 17:48:12;;;;;;;4.65;2.75;;;;;;;26.88;44.96;99825.09;4450509;32;32603;-57
2022/06/06 17:51:06;;;;;;;3.97;2.30;;;;;;;27.20;44.03;99823.53;4440704;32;33939;-58
2022/06/06 17:54:10;;;;;;;3.65;2.03;;;;;;;27.59;42.82;99825.31;4429150;32;34532;-58
2022/06/06 17:56:46;;;;;;;5.93;2.28;;;;;;;27.46;43.09;99827.38;4434538;32;33415;-59
2022/06/06 17:59:35;;;;;;;4.72;1.83;;;;;;;26.58;45.35;99826.59;4441403;32;34601;-58
2022/06/06 18:02:35;;;;;;;2.50;1.73;;;;;;;26.76;45.23;99835.13;4448411;32;33905;-58
2022/06/06 18:05:25;;;;;;;2.50;1.62;;;;;;;27.09;43.76;99828.19;4447642;32;32496;-58
2022/06/06 18:08:24;;;;;;;4.55;1.37;;;;;;;26.61;44.45;99831.88;4435866;32;33116;-58
2022/06/06 18:11:19;;;;;;;1.80;1.17;;;;;;;26.92;43.71;99830.34;4445337;32;34664;-57
2022/06/06 18:14:07;;;;;;;2.37;1.17;;;;;;;26.86;43.95;99824.25;4423482;32;33872;-59
2022/06/06 18:16:43;;;;;;;3.22;1.50;;;;;;;26.84;43.88;99828.72;4415121;32;34685;-59
2022/06/06 18:19:18;;;;;;;2.75;1.12;;;;;;;26.42;45.00;99826.03;4440041;32;34018;-59
2022/06/06 18:21:46;;;;;;;2.47;1.20;;;;;;;26.77;44.31;99831.56;4432603;32;34025;-59
2022/06/06 18:24:34;;;;;;;4.43;1.20;;;;;;;26.62;44.60;99827.47;4434765;32;33718;-59
2022/06/06 18:27:05;;;;;;;1.70;1.10;;;;;;;26.44;45.13;99829.56;4430753;32;34563;-59
2022/06/06 18:29:42;;;;;;;6.18;1.42;;;;;;;26.62;44.66;99827.47;4440455;32;32625;-58
2022/06/06 18:32:14;;;;;;;3.92;1.35;;;;;;;26.08;46.42;99826.69;4426146;32;34649;-59
2022/06/06 18:35:00;;;;;;;4.03;1.40;;;;;;;25.72;47.67;99824.66;4447873;32;33514;-58
2022/06/06 18:37:30;;;;;;;2.90;1.15;;;;;;;25.60;48.00;99818.63;4428477;32;34106;-60
2022/06/06 18:40:20;;;;;;;4.28;1.25;;;;;;;26.18;46.31;99821.22;4439271;32;33475;-59
2022/06/06 18:42:49;;;;;;;3.70;1.20;;;;;;;26.87;44.34;99828.69;4449366;32;34485;-58
2022/06/06 18:45:21;;;;;;;3.35;1.50;;;;;;;26.91;44.33;99825.94;4447585;32;34057;-59
2022/06/06 18:47:54;;;;;;;3.65;1.40;;;;;;;26.85;44.60;99835.81;4432622;32;33466;-59
2022/06/06 18:50:38;;;;;;;2.25;1.10;;;;;;;26.41;45.63;99824.28;4441089;32;33504;-59
2022/06/06 18:53:19;;;;;;;3.40;0.90;;;;;;;26.45;45.67;99830.41;4449872;32;34500;-58
2022/06/06 18:55:55;;;;;;;3.47;1.42;;;;;;;25.87;47.28;99835.88;4442368;32;34563;-61
2022/06/06 18:58:44;;;;;;;3.30;1.27;;;;;;;24.69;50.65;99840.25;4434649;32;33823;-61
2022/06/06 19:01:20;;;;;;;2.35;1.20;;;;;;;24.40;51.95;99833.47;4428874;32;34683;-59
2022/06/06 19:04:00;;;;;;;2.35;1.30;;;;;;;24.29;52.51;99838.00;4433656;32;33631;-59
2022/06/06 19:06:38;;;;;;;3.22;1.35;;;;;;;25.16;50.02;99841.37;4441595;32;34005;-59
2022/06/06 19:09:24;;;;;;;3.55;1.37;;;;;;;24.52;51.71;99846.59;4431745;32;33700;-60
2022/06/06 19:11:52;;;;;;;3.67;1.35;;;;;;;24.52;51.98;99845.72;4451264;32;33104;-60
2022/06/06 19:14:25;;;;;;;2.67;1.20;;;;;;;24.53;51.96;99837.78;4435716;32;33832;-59
2022/06/06 19:16:55;;;;;;;5.37;1.30;;;;;;;24.01;53.55;99850.63;4431625;32;36425;-59
2022/06/06 19:19:30;;;;;;;3.37;1.70;;;;;;;24.41;52.44;99852.88;4433946;32;34411;-59
2022/06/06 19:22:01;;;;;;;4.95;1.50;;;;;;;24.63;51.76;99849.13;4448749;32;33103;-58
2022/06/06 19:24:31;;;;;;;4.25;1.30;;;;;;;24.17;53.21;99854.03;4433543;32;34417;-59
2022/06/06 19:27:02;;;;;;;2.95;1.40;;;;;;;24.13;53.36;99848.75;4459322;32;34629;-58
2022/06/06 19:29:33;;;;;;;2.90;1.30;;;;;;;24.73;51.41;99850.78;4450596;32;33573;-59
2022/06/06 19:32:06;;;;;;;3.30;1.50;;;;;;;24.13;53.46;99862.00;4440285;32;32204;-60
2022/06/06 19:34:36;;;;;;;3.03;1.40;;;;;;;23.46;55.53;99865.16;4446871;32;34456;-60
2022/06/06 19:37:21;;;;;;;4.55;1.40;;;;;;;23.36;56.14;99859.91;4421525;32;34501;-60
2022/06/06 19:40:00;;;;;;;3.50;1.62;;;;;;;24.25;53.42;99857.47;4451747;32;34572;-60
2022/06/06 19:42:51;;;;;;;4.37;1.58;;;;;;;23.56;55.47;99856.25;4453659;32;33785;-59
2022/06/06 19:45:36;;;;;;;20.50;2.28;;;;;;;24.34;53.22;99858.25;4460520;32;34764;-59
2022/06/06 19:48:16;;;;;;;3.15;1.50;;;;;;;24.05;54.01;99845.31;4439151;32;34019;-60
2022/06/06 19:50:47;;;;;;;3.20;1.60;;;;;;;23.52;55.75;99851.88;4458621;32;35344;-60
2022/06/06 19:53:23;;;;;;;4.15;1.80;;;;;;;24.02;54.28;99855.91;4452127;32;34172;-59
2022/06/06 19:55:56;;;;;;;2.35;1.40;;;;;;;23.40;56.24;99854.63;4460671;32;33849;-59
2022/06/06 19:58:25;;;;;;;3.42;1.58;;;;;;;23.90;54.75;99850.75;4439243;32;34002;-59
2022/06/06 20:00:55;;;;;;;2.92;1.42;;;;;;;24.28;53.50;99852.12;4432761;32;33779;-59
2022/06/06 20:03:27;;;;;;;6.65;1.70;;;;;;;24.93;51.88;99845.19;4451545;32;33715;-59
2022/06/06 20:05:58;;;;;;;3.80;1.48;;;;;;;23.79;55.44;99855.25;4453939;32;34670;-59
2022/06/06 20:08:32;;;;;;;4.45;1.67;;;;;;;23.63;55.65;99847.41;4451190;32;34389;-60
2022/06/06 20:11:14;;;;;;;4.28;1.60;;;;;;;24.28;53.56;99839.78;4450243;32;34492;-59
2022/06/06 20:14:02;;;;;;;3.10;1.40;;;;;;;22.94;57.86;99850.44;4442207;32;34118;-59
2022/06/06 20:16:37;;;;;;;3.00;1.50;;;;;;;22.48;59.26;99846.22;4454883;32;33890;-60
2022/06/06 20:19:22;;;;;;;2.95;1.25;;;;;;;22.58;58.97;99853.25;4458045;32;34420;-59
2022/06/06 20:21:57;;;;;;;3.17;1.42;;;;;;;22.93;58.06;99848.72;4439333;32;34549;-60
2022/06/06 20:24:49;;;;;;;3.58;1.77;;;;;;;22.54;59.30;99845.31;4447281;32;34296;-60
2022/06/06 20:27:28;;;;;;;3.08;1.35;;;;;;;22.59;59.27;99848.84;4439441;32;33029;-60
2022/06/06 20:33:39;;;;;;;3.08;1.60;;;;;;;22.54;59.55;99851.50;4422376;32;33124;-59
2022/06/06 20:36:47;;;;;;;3.60;1.77;;;;;;;22.29;60.67;99855.06;4450644;32;33452;-60
2022/06/06 20:39:16;;;;;;;2.85;1.52;;;;;;;22.30;60.92;99846.28;4422294;32;34256;-59
2022/06/06 20:41:49;;;;;;;3.22;1.42;;;;;;;22.43;60.37;99842.72;4439592;32;33888;-59
2022/06/06 20:44:20;;;;;;;4.22;1.60;;;;;;;22.22;61.12;99845.41;4449605;32;33749;-58
2022/06/06 20:46:54;;;;;;;2.65;1.40;;;;;;;21.83;62.63;99847.16;4435172;32;34218;-58
2022/06/06 20:49:30;;;;;;;3.20;1.35;;;;;;;22.01;62.24;99843.66;4455305;32;33777;-58
2022/06/06 20:51:59;;;;;;;4.15;1.75;;;;;;;22.13;61.78;99847.13;4425775;32;34709;-57
2022/06/06 20:54:29;;;;;;;3.28;1.77;;;;;;;21.66;63.39;99848.06;4436829;32;34613;-58
2022/06/06 20:57:32;;;;;;;5.80;1.83;;;;;;;21.72;63.27;99850.69;4458116;32;33430;-57
2022/06/06 21:00:06;;;;;;;4.45;2.00;;;;;;;21.61;63.88;99844.53;4454304;32;33966;-58
2022/06/06 21:02:35;;;;;;;3.08;1.48;;;;;;;21.35;64.88;99841.84;4443142;32;34076;-58
2022/06/06 21:05:03;;;;;;;4.05;2.05;;;;;;;21.39;64.91;99847.13;4448456;32;33948;-59
2022/06/06 21:07:31;;;;;;;4.93;2.17;;;;;;;21.44;64.57;99844.53;4444406;32;34021;-59
2022/06/06 21:10:05;;;;;;;4.12;2.78;;;;;;;21.36;64.94;99838.31;4448769;32;33929;-58
2022/06/06 21:12:33;;;;;;;;;;;;;;;21.40;64.76;99838.34;4444912;32;33937;-58
2022/06/06 21:15:03;;;;;;;6.28;2.80;;;;;;;21.41;64.44;99837.47;4448210;32;34234;-58
2022/06/06 21:17:31;;;;;;;4.97;2.72;;;;;;;21.18;65.53;99845.31;4453360;32;33107;-58
2022/06/06 21:19:58;;;;;;;6.50;2.83;;;;;;;21.06;66.01;99844.44;4447037;32;34641;-59
2022/06/06 21:22:26;;;;;;;6.35;2.65;;;;;;;20.71;67.41;99850.44;4443962;32;34193;-59
2022/06/06 21:24:55;;;;;;;5.87;2.55;;;;;;;20.89;66.86;99842.59;4429389;32;33818;-59
2022/06/06 21:27:23;;;;;;;5.03;2.80;;;;;;;20.83;67.00;99842.59;4452524;32;33235;-59
2022/06/06 21:29:51;;;;;;;4.53;2.40;;;;;;;20.81;67.03;99849.59;4451774;32;33945;-58
2022/06/06 21:32:20;;;;;;;4.12;2.17;;;;;;;20.98;66.37;99837.38;4451194;32;34670;-58
2022/06/06 21:34:49;;;;;;;4.00;2.33;;;;;;;20.93;66.70;99839.09;4452049;32;33805;-58
2022/06/06 21:37:18;;;;;;;4.45;2.55;;;;;;;20.85;66.74;99846.09;4446877;32;33446;-58
2022/06/06 21:39:45;;;;;;;4.18;2.20;;;;;;;20.56;67.82;99844.19;4430633;32;34394;-59
2022/06/06 21:42:13;;;;;;;4.43;2.20;;;;;;;21.65;63.96;99835.75;4434877;32;33246;-59
2022/06/06 21:44:41;;;;;;;5.87;1.80;;;;;;;21.72;63.79;99831.38;4453088;32;34691;-59
2022/06/06 21:47:09;;;;;;;3.17;1.80;;;;;;;20.83;66.50;99832.06;4450134;32;33941;-59
2022/06/06 21:49:36;;;;;;;3.80;1.90;;;;;;;20.27;68.96;99827.38;4438240;32;33552;-58
2022/06/06 21:52:04;;;;;;;3.28;1.90;;;;;;;20.15;69.21;99831.69;4449873;32;34619;-59
2022/06/06 21:54:32;;;;;;;3.85;1.65;;;;;;;20.35;68.51;99828.31;4446590;32;33878;-58
2022/06/06 21:57:00;;;;;;;3.60;2.08;;;;;;;20.34;68.66;99821.25;4449650;32;33313;-58
2022/06/06 21:59:29;;;;;;;2.50;1.70;;;;;;;20.33;68.70;99830.03;4445471;32;33796;-58
2022/06/06 22:02:00;;;;;;;5.07;1.95;;;;;;;20.32;68.88;99823.00;4431196;32;33851;-58
2022/06/06 22:04:29;;;;;;;3.53;1.98;;;;;;;20.49;68.27;99826.59;4442208;32;33625;-58
2022/06/06 22:06:58;;;;;;;3.78;2.17;;;;;;;20.62;67.56;99827.59;4448549;32;33331;-58
2022/06/06 22:09:28;;;;;;;3.30;1.80;;;;;;;20.65;67.35;99818.81;4426345;32;32294;-58